sensor_id;sensor_type;location;lat;lon;timestamp;P1;durP1;ratioP1;P2;durP2;ratioP2
15921;SDS011;8060;50.948;3.146;2022-10-30T07:01:40;25.27;;;10.97;;
15921;SDS011;8060;50.948;3.146;2022-10-30T07:04:09;30.73;;;10.03;;
15921;SDS011;8060;50.948;3.146;2022-10-30T07:06:37;27.97;;;10.60;;
15921;SDS011;8060;50.948;3.146;2022-10-30T07:09:05;21.60;;;9.90;;
15921;SDS011;8060;50.948;3.146;2022-10-30T07:11:33;22.23;;;10.63;;
15921;SDS011;8060;50.948;3.146;2022-10-30T07:14:01;25.70;;;11.20;;
15921;SDS011;8060;50.948;3.146;2022-10-30T07:16:29;22.70;;;10.53;;
15921;SDS011;8060;50.948;3.146;2022-10-30T07:18:58;24.13;;;10.87;;
15921;SDS011;8060;50.948;3.146;2022-10-30T07:21:30;21.30;;;11.73;;
15921;SDS011;8060;50.948;3.146;2022-10-30T07:23:58;28.37;;;10.47;;
15921;SDS011;8060;50.948;3.146;2022-10-30T07:26:26;21.30;;;10.10;;
15921;SDS011;8060;50.948;3.146;2022-10-30T07:28:54;24.77;;;10.47;;
15921;SDS011;8060;50.948;3.146;2022-10-30T07:31:21;22.83;;;10.23;;
15921;SDS011;8060;50.948;3.146;2022-10-30T07:34:09;25.03;;;10.03;;
15921;SDS011;8060;50.948;3.146;2022-10-30T07:36:37;24.23;;;10.20;;
15921;SDS011;8060;50.948;3.146;2022-10-30T07:39:05;26.93;;;10.70;;
15921;SDS011;8060;50.948;3.146;2022-10-30T07:41:33;23.67;;;10.10;;
15921;SDS011;8060;50.948;3.146;2022-10-30T07:44:01;20.83;;;10.63;;
15921;SDS011;8060;50.948;3.146;2022-10-30T07:46:29;32.73;;;10.63;;
15921;SDS011;8060;50.948;3.146;2022-10-30T07:48:57;30.33;;;10.97;;
15921;SDS011;8060;50.948;3.146;2022-10-30T07:51:27;26.47;;;11.20;;
15921;SDS011;8060;50.948;3.146;2022-10-30T07:53:55;26.37;;;11.67;;
15921;SDS011;8060;50.948;3.146;2022-10-30T07:56:23;31.83;;;10.80;;
15921;SDS011;8060;50.948;3.146;2022-10-30T07:58:51;31.27;;;11.80;;
15921;SDS011;8060;50.948;3.146;2022-10-30T08:01:19;23.47;;;11.30;;
15921;SDS011;8060;50.948;3.146;2022-10-30T08:03:47;19.37;;;10.87;;
15921;SDS011;8060;50.948;3.146;2022-10-30T08:06:15;24.33;;;11.53;;
15921;SDS011;8060;50.948;3.146;2022-10-30T08:08:51;26.83;;;10.43;;
15921;SDS011;8060;50.948;3.146;2022-10-30T08:11:19;24.87;;;10.87;;
15921;SDS011;8060;50.948;3.146;2022-10-30T08:13:47;26.53;;;10.57;;
15921;SDS011;8060;50.948;3.146;2022-10-30T08:16:15;25.80;;;10.50;;
15921;SDS011;8060;50.948;3.146;2022-10-30T08:18:43;26.30;;;10.40;;
15921;SDS011;8060;50.948;3.146;2022-10-30T08:21:11;19.70;;;10.20;;
15921;SDS011;8060;50.948;3.146;2022-10-30T08:23:39;22.23;;;9.37;;
15921;SDS011;8060;50.948;3.146;2022-10-30T08:26:09;26.40;;;10.00;;
15921;SDS011;8060;50.948;3.146;2022-10-30T08:28:37;20.80;;;9.00;;
15921;SDS011;8060;50.948;3.146;2022-10-30T08:31:05;18.33;;;9.60;;
15921;SDS011;8060;50.948;3.146;2022-10-30T08:33:33;24.67;;;10.10;;
15921;SDS011;8060;50.948;3.146;2022-10-30T08:36:01;21.50;;;11.07;;
15921;SDS011;8060;50.948;3.146;2022-10-30T08:38:30;24.70;;;9.47;;
15921;SDS011;8060;50.948;3.146;2022-10-30T08:41:00;21.63;;;9.67;;
15921;SDS011;8060;50.948;3.146;2022-10-30T08:43:29;17.53;;;9.70;;
15921;SDS011;8060;50.948;3.146;2022-10-30T08:45:57;24.13;;;9.40;;
15921;SDS011;8060;50.948;3.146;2022-10-30T08:48:26;25.90;;;10.27;;
15921;SDS011;8060;50.948;3.146;2022-10-30T08:50:56;17.23;;;8.97;;
15921;SDS011;8060;50.948;3.146;2022-10-30T08:53:26;22.50;;;9.53;;
15921;SDS011;8060;50.948;3.146;2022-10-30T08:55:54;21.20;;;9.00;;
15921;SDS011;8060;50.948;3.146;2022-10-30T08:58:23;19.53;;;9.10;;
15921;SDS011;8060;50.948;3.146;2022-10-30T09:00:52;35.10;;;9.63;;
15921;SDS011;8060;50.948;3.146;2022-10-30T09:03:26;21.23;;;9.00;;
15921;SDS011;8060;50.948;3.146;2022-10-30T09:05:56;20.20;;;8.40;;
15921;SDS011;8060;50.948;3.146;2022-10-30T09:08:24;22.23;;;8.47;;
15921;SDS011;8060;50.948;3.146;2022-10-30T09:10:53;25.20;;;8.80;;
15921;SDS011;8060;50.948;3.146;2022-10-30T09:13:22;25.33;;;9.47;;
15921;SDS011;8060;50.948;3.146;2022-10-30T09:15:51;17.67;;;8.53;;
15921;SDS011;8060;50.948;3.146;2022-10-30T09:18:21;24.80;;;8.83;;
15921;SDS011;8060;50.948;3.146;2022-10-30T09:20:49;22.47;;;8.40;;
15921;SDS011;8060;50.948;3.146;2022-10-30T09:23:17;21.00;;;7.90;;
15921;SDS011;8060;50.948;3.146;2022-10-30T09:25:45;23.13;;;8.13;;
15921;SDS011;8060;50.948;3.146;2022-10-30T09:28:13;13.30;;;7.63;;
15921;SDS011;8060;50.948;3.146;2022-10-30T09:30:41;22.47;;;7.40;;
15921;SDS011;8060;50.948;3.146;2022-10-30T09:33:11;16.50;;;7.30;;
15921;SDS011;8060;50.948;3.146;2022-10-30T09:35:39;17.40;;;7.53;;
15921;SDS011;8060;50.948;3.146;2022-10-30T09:38:07;14.40;;;7.80;;
15921;SDS011;8060;50.948;3.146;2022-10-30T09:40:38;16.73;;;7.67;;
15921;SDS011;8060;50.948;3.146;2022-10-30T09:43:21;18.97;;;7.57;;
15921;SDS011;8060;50.948;3.146;2022-10-30T09:46:04;17.47;;;7.27;;
15921;SDS011;8060;50.948;3.146;2022-10-30T09:48:48;13.43;;;6.83;;
15921;SDS011;8060;50.948;3.146;2022-10-30T09:52:02;12.20;;;5.77;;
15921;SDS011;8060;50.948;3.146;2022-10-30T09:57:48;20.97;;;6.47;;
15921;SDS011;8060;50.948;3.146;2022-10-30T10:00:24;18.50;;;5.77;;
15921;SDS011;8060;50.948;3.146;2022-10-30T10:03:04;14.77;;;5.87;;
15921;SDS011;8060;50.948;3.146;2022-10-30T10:05:47;18.90;;;5.77;;
15921;SDS011;8060;50.948;3.146;2022-10-30T10:08:19;14.73;;;7.30;;
15921;SDS011;8060;50.948;3.146;2022-10-30T10:10:51;17.73;;;6.53;;
15921;SDS011;8060;50.948;3.146;2022-10-30T10:13:25;17.80;;;6.03;;
15921;SDS011;8060;50.948;3.146;2022-10-30T10:15:58;20.80;;;6.33;;
15921;SDS011;8060;50.948;3.146;2022-10-30T10:18:32;14.57;;;6.33;;
15921;SDS011;8060;50.948;3.146;2022-10-30T10:21:08;20.50;;;6.00;;
15921;SDS011;8060;50.948;3.146;2022-10-30T10:23:43;14.87;;;5.57;;
15921;SDS011;8060;50.948;3.146;2022-10-30T10:26:25;19.10;;;6.67;;
15921;SDS011;8060;50.948;3.146;2022-10-30T10:29:08;17.77;;;7.90;;
15921;SDS011;8060;50.948;3.146;2022-10-30T10:31:49;17.80;;;7.60;;
15921;SDS011;8060;50.948;3.146;2022-10-30T10:34:32;18.77;;;7.63;;
15921;SDS011;8060;50.948;3.146;2022-10-30T10:37:15;15.50;;;6.00;;
15921;SDS011;8060;50.948;3.146;2022-10-30T10:39:53;13.90;;;5.80;;
15921;SDS011;8060;50.948;3.146;2022-10-30T10:42:33;15.20;;;5.70;;
15921;SDS011;8060;50.948;3.146;2022-10-30T10:45:11;12.30;;;6.23;;
15921;SDS011;8060;50.948;3.146;2022-10-30T10:50:42;17.70;;;5.30;;
15921;SDS011;8060;50.948;3.146;2022-10-30T10:53:17;15.43;;;6.70;;
15921;SDS011;8060;50.948;3.146;2022-10-30T10:55:51;15.13;;;5.60;;
15921;SDS011;8060;50.948;3.146;2022-10-30T10:58:26;19.30;;;5.40;;
15921;SDS011;8060;50.948;3.146;2022-10-30T11:00:58;13.23;;;5.63;;
15921;SDS011;8060;50.948;3.146;2022-10-30T11:03:28;17.90;;;6.40;;
15921;SDS011;8060;50.948;3.146;2022-10-30T11:06:10;17.63;;;7.30;;
15921;SDS011;8060;50.948;3.146;2022-10-30T11:08:47;15.50;;;5.90;;
15921;SDS011;8060;50.948;3.146;2022-10-30T11:11:16;17.43;;;5.73;;
15921;SDS011;8060;50.948;3.146;2022-10-30T11:13:44;17.77;;;5.90;;
15921;SDS011;8060;50.948;3.146;2022-10-30T11:16:16;12.83;;;5.40;;
15921;SDS011;8060;50.948;3.146;2022-10-30T11:18:52;8.47;;;5.37;;
15921;SDS011;8060;50.948;3.146;2022-10-30T11:21:23;14.13;;;5.67;;
15921;SDS011;8060;50.948;3.146;2022-10-30T11:23:53;14.97;;;5.40;;
15921;SDS011;8060;50.948;3.146;2022-10-30T11:26:26;12.17;;;5.10;;
15921;SDS011;8060;50.948;3.146;2022-10-30T11:29:05;13.63;;;5.40;;
15921;SDS011;8060;50.948;3.146;2022-10-30T11:31:39;12.90;;;5.43;;
15921;SDS011;8060;50.948;3.146;2022-10-30T11:36:57;16.93;;;5.50;;
15921;SDS011;8060;50.948;3.146;2022-10-30T11:39:28;19.90;;;5.15;;
15921;SDS011;8060;50.948;3.146;2022-10-30T11:41:58;10.90;;;5.03;;
15921;SDS011;8060;50.948;3.146;2022-10-30T11:44:30;11.95;;;5.10;;
15921;SDS011;8060;50.948;3.146;2022-10-30T11:47:01;10.60;;;5.15;;
15921;SDS011;8060;50.948;3.146;2022-10-30T11:49:33;8.75;;;3.97;;
15921;SDS011;8060;50.948;3.146;2022-10-30T11:52:06;11.75;;;4.47;;
15921;SDS011;8060;50.948;3.146;2022-10-30T11:54:38;11.52;;;4.10;;
15921;SDS011;8060;50.948;3.146;2022-10-30T11:57:15;9.15;;;4.30;;
15921;SDS011;8060;50.948;3.146;2022-10-30T11:59:49;10.05;;;4.60;;
15921;SDS011;8060;50.948;3.146;2022-10-30T12:02:20;13.32;;;4.75;;
15921;SDS011;8060;50.948;3.146;2022-10-30T12:04:53;11.48;;;4.85;;
15921;SDS011;8060;50.948;3.146;2022-10-30T12:07:23;9.15;;;4.10;;
15921;SDS011;8060;50.948;3.146;2022-10-30T12:09:55;12.82;;;4.60;;
15921;SDS011;8060;50.948;3.146;2022-10-30T12:12:26;10.70;;;3.95;;
15921;SDS011;8060;50.948;3.146;2022-10-30T12:15:06;12.48;;;4.43;;
15921;SDS011;8060;50.948;3.146;2022-10-30T12:17:36;8.35;;;4.32;;
15921;SDS011;8060;50.948;3.146;2022-10-30T12:20:06;7.63;;;3.97;;
15921;SDS011;8060;50.948;3.146;2022-10-30T12:22:40;13.50;;;4.10;;
15921;SDS011;8060;50.948;3.146;2022-10-30T12:25:17;12.07;;;3.95;;
15921;SDS011;8060;50.948;3.146;2022-10-30T12:27:49;11.75;;;3.83;;
15921;SDS011;8060;50.948;3.146;2022-10-30T12:30:25;10.00;;;4.15;;
15921;SDS011;8060;50.948;3.146;2022-10-30T12:32:57;10.95;;;3.97;;
15921;SDS011;8060;50.948;3.146;2022-10-30T12:35:34;9.50;;;4.18;;
15921;SDS011;8060;50.948;3.146;2022-10-30T12:38:09;10.32;;;4.10;;
15921;SDS011;8060;50.948;3.146;2022-10-30T12:40:49;10.43;;;4.55;;
15921;SDS011;8060;50.948;3.146;2022-10-30T12:43:24;11.10;;;4.43;;
15921;SDS011;8060;50.948;3.146;2022-10-30T12:45:55;9.77;;;4.17;;
15921;SDS011;8060;50.948;3.146;2022-10-30T12:48:29;10.33;;;3.37;;
15921;SDS011;8060;50.948;3.146;2022-10-30T12:51:08;13.87;;;3.10;;
15921;SDS011;8060;50.948;3.146;2022-10-30T12:53:49;8.33;;;2.73;;
15921;SDS011;8060;50.948;3.146;2022-10-30T12:56:26;12.17;;;2.63;;
15921;SDS011;8060;50.948;3.146;2022-10-30T12:59:00;9.10;;;1.97;;
15921;SDS011;8060;50.948;3.146;2022-10-30T13:01:40;6.13;;;2.00;;
15921;SDS011;8060;50.948;3.146;2022-10-30T13:04:14;6.70;;;1.77;;
15921;SDS011;8060;50.948;3.146;2022-10-30T13:06:46;10.20;;;2.07;;
15921;SDS011;8060;50.948;3.146;2022-10-30T13:09:20;7.43;;;2.20;;
15921;SDS011;8060;50.948;3.146;2022-10-30T13:11:54;8.13;;;2.07;;
15921;SDS011;8060;50.948;3.146;2022-10-30T13:14:30;11.83;;;2.10;;
15921;SDS011;8060;50.948;3.146;2022-10-30T13:17:03;10.07;;;1.60;;
15921;SDS011;8060;50.948;3.146;2022-10-30T13:19:35;7.70;;;1.87;;
15921;SDS011;8060;50.948;3.146;2022-10-30T13:22:04;7.27;;;1.57;;
15921;SDS011;8060;50.948;3.146;2022-10-30T13:24:39;7.10;;;1.77;;
15921;SDS011;8060;50.948;3.146;2022-10-30T13:27:15;9.47;;;1.70;;
15921;SDS011;8060;50.948;3.146;2022-10-30T13:29:51;5.87;;;1.43;;
15921;SDS011;8060;50.948;3.146;2022-10-30T13:32:32;5.03;;;1.10;;
15921;SDS011;8060;50.948;3.146;2022-10-30T13:35:16;8.67;;;1.70;;
15921;SDS011;8060;50.948;3.146;2022-10-30T13:37:54;10.83;;;2.20;;
15921;SDS011;8060;50.948;3.146;2022-10-30T13:40:30;7.03;;;1.50;;
15921;SDS011;8060;50.948;3.146;2022-10-30T13:43:06;8.03;;;1.50;;
15921;SDS011;8060;50.948;3.146;2022-10-30T13:45:46;9.13;;;1.80;;
15921;SDS011;8060;50.948;3.146;2022-10-30T13:48:35;5.47;;;1.50;;
15921;SDS011;8060;50.948;3.146;2022-10-30T13:54:03;7.53;;;2.33;;
15921;SDS011;8060;50.948;3.146;2022-10-30T13:56:42;7.73;;;1.70;;
15921;SDS011;8060;50.948;3.146;2022-10-30T13:59:25;6.30;;;1.30;;
15921;SDS011;8060;50.948;3.146;2022-10-30T14:02:11;7.33;;;1.50;;
15921;SDS011;8060;50.948;3.146;2022-10-30T14:04:51;8.67;;;1.60;;
15921;SDS011;8060;50.948;3.146;2022-10-30T14:07:23;7.33;;;1.30;;
15921;SDS011;8060;50.948;3.146;2022-10-30T14:09:58;7.20;;;1.57;;
15921;SDS011;8060;50.948;3.146;2022-10-30T14:12:42;6.60;;;1.40;;
15921;SDS011;8060;50.948;3.146;2022-10-30T14:15:18;5.43;;;0.90;;
15921;SDS011;8060;50.948;3.146;2022-10-30T14:20:52;6.43;;;1.10;;
15921;SDS011;8060;50.948;3.146;2022-10-30T14:23:22;4.23;;;1.23;;
15921;SDS011;8060;50.948;3.146;2022-10-30T14:28:47;6.30;;;1.17;;
15921;SDS011;8060;50.948;3.146;2022-10-30T14:31:18;5.63;;;1.20;;
15921;SDS011;8060;50.948;3.146;2022-10-30T14:33:59;7.20;;;1.30;;
15921;SDS011;8060;50.948;3.146;2022-10-30T14:39:27;7.50;;;1.30;;
15921;SDS011;8060;50.948;3.146;2022-10-30T14:42:04;6.80;;;1.33;;
15921;SDS011;8060;50.948;3.146;2022-10-30T14:44:42;11.00;;;2.43;;
15921;SDS011;8060;50.948;3.146;2022-10-30T14:50:13;11.13;;;1.97;;
15921;SDS011;8060;50.948;3.146;2022-10-30T14:53:15;21.23;;;11.57;;
15921;SDS011;8060;50.948;3.146;2022-10-30T14:55:54;12.67;;;2.47;;
15921;SDS011;8060;50.948;3.146;2022-10-30T14:58:28;7.53;;;1.73;;
15921;SDS011;8060;50.948;3.146;2022-10-30T15:01:18;5.23;;;1.60;;
15921;SDS011;8060;50.948;3.146;2022-10-30T15:04:01;8.20;;;1.37;;
15921;SDS011;8060;50.948;3.146;2022-10-30T15:06:39;5.97;;;1.10;;
15921;SDS011;8060;50.948;3.146;2022-10-30T15:09:20;3.90;;;1.00;;
15921;SDS011;8060;50.948;3.146;2022-10-30T15:18:45;3.63;;;1.60;;
15921;SDS011;8060;50.948;3.146;2022-10-30T15:21:19;8.83;;;1.93;;
15921;SDS011;8060;50.948;3.146;2022-10-30T15:23:50;7.63;;;2.10;;
15921;SDS011;8060;50.948;3.146;2022-10-30T15:26:25;7.90;;;2.00;;
15921;SDS011;8060;50.948;3.146;2022-10-30T15:28:58;5.20;;;1.70;;
